Time;durP1;ratioP1;P1;durP2;ratioP2;P2;SDS_P1;SDS_P2;PMS_P1;PMS_P2;Temp;Humidity;BMP_temperature;BMP_pressure;BME280_temperature;BME280_humidity;BME280_pressure;Samples;Min_cycle;Max_cycle;Signal;HPM_P1;HPM_P2
2022/03/09 00:02:12;;;;;;;;;;;21.70;34.80;;;;;;5074643;28;19916;-54
2022/03/09 00:04:37;;;;;;;;;;;21.70;34.90;;;;;;5068927;28;19919;-54
2022/03/09 00:07:04;;;;;;;;;;;21.60;34.80;;;;;;5071709;28;19958;-54
2022/03/09 00:09:29;;;;;;;;;;;21.60;34.80;;;;;;5074400;28;19912;-54
2022/03/09 00:11:55;;;;;;;;;;;21.50;34.70;;;;;;5073713;28;20006;-54
2022/03/09 00:14:20;;;;;;;;;;;21.50;34.70;;;;;;5074612;28;19916;-54
2022/03/09 00:16:45;;;;;;;;;;;21.50;34.70;;;;;;5074890;28;19909;-54
2022/03/09 00:19:11;;;;;;;;;;;21.50;34.70;;;;;;5073661;28;19912;-54
2022/03/09 00:21:36;;;;;;;;;;;21.50;34.70;;;;;;5074633;28;19913;-54
2022/03/09 00:24:02;;;;;;;;;;;21.50;34.70;;;;;;5073756;28;19908;-54
2022/03/09 00:26:28;;;;;;;;;;;21.40;35.30;;;;;;5073953;28;19991;-54
2022/03/09 00:28:53;;;;;;;;;;;21.40;34.60;;;;;;5070263;28;19909;-54
2022/03/09 00:31:18;;;;;;;;;;;21.40;34.80;;;;;;5074993;28;19920;-54
2022/03/09 00:33:44;;;;;;;;;;;21.40;34.70;;;;;;5073761;28;19931;-54
2022/03/09 00:36:09;;;;;;;;;;;21.40;34.80;;;;;;5073094;28;19917;-54
2022/03/09 00:38:35;;;;;;;;;;;21.40;34.70;;;;;;5072570;28;20399;-54
2022/03/09 00:41:02;;;;;;;;;;;21.30;34.70;;;;;;5074149;28;20071;-54
2022/03/09 00:43:27;;;;;;;;;;;21.30;34.80;;;;;;5074446;28;20276;-54
2022/03/09 00:45:53;;;;;;;;;;;21.30;34.80;;;;;;5074581;28;19916;-54
2022/03/09 00:48:18;;;;;;;;;;;21.30;34.90;;;;;;5069649;28;19939;-54
2022/03/09 00:50:44;;;;;;;;;;;21.30;34.90;;;;;;5059640;28;19913;-54
2022/03/09 00:53:09;;;;;;;;;;;21.30;35.00;;;;;;5074262;28;20007;-54
2022/03/09 00:55:35;;;;;;;;;;;21.20;34.80;;;;;;5073184;28;19990;-54
2022/03/09 00:58:00;;;;;;;;;;;21.20;34.90;;;;;;5074052;28;19912;-54
2022/03/09 01:00:26;;;;;;;;;;;21.20;34.90;;;;;;5074213;28;20360;-54
2022/03/09 01:02:51;;;;;;;;;;;21.20;35.10;;;;;;5074426;28;20322;-54
2022/03/09 01:05:16;;;;;;;;;;;21.20;35.10;;;;;;5073350;28;19920;-54
2022/03/09 01:07:42;;;;;;;;;;;21.10;34.90;;;;;;5074729;28;19912;-54
2022/03/09 01:10:08;;;;;;;;;;;21.20;35.10;;;;;;5073579;28;19965;-54
2022/03/09 01:12:33;;;;;;;;;;;21.20;34.90;;;;;;5074420;28;19952;-54
2022/03/09 01:14:59;;;;;;;;;;;21.20;34.90;;;;;;5069229;28;19928;-53
2022/03/09 01:17:26;;;;;;;;;;;21.20;35.00;;;;;;5074469;28;19924;-54
2022/03/09 01:19:51;;;;;;;;;;;21.20;34.80;;;;;;5073042;28;19935;-54
2022/03/09 01:22:17;;;;;;;;;;;21.10;35.00;;;;;;5074238;28;19908;-54
2022/03/09 01:24:42;;;;;;;;;;;21.10;35.00;;;;;;5073139;28;19958;-54
2022/03/09 01:27:08;;;;;;;;;;;21.10;35.00;;;;;;5073019;28;19966;-53
2022/03/09 01:29:34;;;;;;;;;;;21.10;35.00;;;;;;5073020;28;19916;-54
2022/03/09 01:32:00;;;;;;;;;;;21.10;35.00;;;;;;5070705;28;19924;-54
2022/03/09 01:34:25;;;;;;;;;;;21.00;35.00;;;;;;5073469;28;20325;-54
2022/03/09 01:36:51;;;;;;;;;;;21.00;35.00;;;;;;5073838;28;20287;-54
2022/03/09 01:39:16;;;;;;;;;;;21.00;35.10;;;;;;5073364;28;19939;-54
2022/03/09 01:41:42;;;;;;;;;;;21.00;35.10;;;;;;5074271;28;19908;-54
2022/03/09 01:44:08;;;;;;;;;;;21.00;35.10;;;;;;5073353;28;19912;-53
2022/03/09 01:46:34;;;;;;;;;;;21.00;35.00;;;;;;5069538;28;19919;-54
2022/03/09 01:48:59;;;;;;;;;;;21.00;35.10;;;;;;5073280;28;20356;-54
2022/03/09 01:51:25;;;;;;;;;;;21.00;35.00;;;;;;5074257;28;19916;-54
2022/03/09 01:53:51;;;;;;;;;;;20.90;34.90;;;;;;5073343;28;19952;-54
2022/03/09 01:56:16;;;;;;;;;;;20.90;35.00;;;;;;5073919;28;19916;-54
2022/03/09 01:58:42;;;;;;;;;;;20.90;35.00;;;;;;5071306;28;19958;-54
2022/03/09 02:01:07;;;;;;;;;;;20.90;35.00;;;;;;5073752;28;19912;-54
2022/03/09 02:03:33;;;;;;;;;;;20.90;35.00;;;;;;5069360;28;19920;-54
2022/03/09 02:05:58;;;;;;;;;;;20.90;35.10;;;;;;5065002;28;20425;-54
2022/03/09 02:11:08;;;;;;;;;;;20.80;34.90;;;;;;5073769;28;19954;-54
2022/03/09 02:13:37;;;;;;;;;;;20.70;35.10;;;;;;5073220;28;19913;-54
2022/03/09 02:16:02;;;;;;;;;;;20.70;35.30;;;;;;5073317;28;19963;-54
2022/03/09 02:18:28;;;;;;;;;;;20.80;35.60;;;;;;5075164;28;19960;-54
2022/03/09 02:20:53;;;;;;;;;;;20.80;35.70;;;;;;5077749;28;19916;-54
2022/03/09 02:23:19;;;;;;;;;;;20.90;35.50;;;;;;5071245;28;19934;-54
2022/03/09 02:25:44;;;;;;;;;;;21.10;35.60;;;;;;5077181;28;19908;-54
2022/03/09 02:28:10;;;;;;;;;;;21.20;35.40;;;;;;5059510;28;19920;-54
2022/03/09 02:30:35;;;;;;;;;;;21.40;35.30;;;;;;5075385;28;19999;-54
2022/03/09 02:33:01;;;;;;;;;;;21.60;35.10;;;;;;5076280;28;19912;-54
2022/03/09 02:35:26;;;;;;;;;;;21.70;34.90;;;;;;5076037;28;19940;-54
2022/03/09 02:37:51;;;;;;;;;;;22.10;34.50;;;;;;5077219;28;19908;-54
2022/03/09 02:40:17;;;;;;;;;;;22.30;34.10;;;;;;5072522;28;19913;-54
2022/03/09 02:42:43;;;;;;;;;;;22.40;33.90;;;;;;5077057;28;20026;-54
2022/03/09 02:45:08;;;;;;;;;;;22.40;33.70;;;;;;5076373;28;20007;-54
2022/03/09 02:47:34;;;;;;;;;;;22.40;33.60;;;;;;5071088;28;19967;-54
2022/03/09 02:49:59;;;;;;;;;;;22.30;33.60;;;;;;5054644;28;19912;-54
2022/03/09 02:52:25;;;;;;;;;;;22.30;33.70;;;;;;5076028;28;19919;-54
2022/03/09 02:54:50;;;;;;;;;;;22.30;33.80;;;;;;5076434;28;20462;-54
2022/03/09 02:57:16;;;;;;;;;;;22.30;33.70;;;;;;5073418;28;19913;-54
2022/03/09 02:59:41;;;;;;;;;;;22.30;33.70;;;;;;5074592;28;19909;-54
2022/03/09 03:02:07;;;;;;;;;;;22.30;33.80;;;;;;5074688;28;19916;-54
2022/03/09 03:04:32;;;;;;;;;;;22.30;33.80;;;;;;5076068;28;19944;-54
2022/03/09 03:06:58;;;;;;;;;;;22.20;33.80;;;;;;5075851;28;19924;-54
2022/03/09 03:09:23;;;;;;;;;;;22.20;33.60;;;;;;5075800;28;19919;-54
2022/03/09 03:11:49;;;;;;;;;;;22.10;33.50;;;;;;5076278;28;20004;-54
2022/03/09 03:14:14;;;;;;;;;;;22.10;33.50;;;;;;5076059;28;20401;-54
2022/03/09 03:16:40;;;;;;;;;;;22.00;33.40;;;;;;5071425;28;20359;-54
2022/03/09 03:19:05;;;;;;;;;;;22.00;33.40;;;;;;5070464;28;19909;-54
2022/03/09 03:21:31;;;;;;;;;;;22.00;33.40;;;;;;5070727;28;19913;-54
2022/03/09 03:23:56;;;;;;;;;;;21.80;33.30;;;;;;5075085;28;20046;-54
2022/03/09 03:26:24;;;;;;;;;;;21.80;33.40;;;;;;5075396;28;20386;-54
2022/03/09 03:28:50;;;;;;;;;;;21.80;33.60;;;;;;5074861;28;19927;-54
2022/03/09 03:31:16;;;;;;;;;;;21.70;33.70;;;;;;5075422;28;19913;-54
2022/03/09 03:33:41;;;;;;;;;;;21.70;33.80;;;;;;5072707;28;19923;-54
2022/03/09 03:36:07;;;;;;;;;;;21.60;33.90;;;;;;5064929;28;19916;-54
2022/03/09 03:38:32;;;;;;;;;;;21.50;33.90;;;;;;5075385;28;19912;-54
2022/03/09 03:40:57;;;;;;;;;;;21.40;34.00;;;;;;5075713;28;20306;-54
2022/03/09 03:43:23;;;;;;;;;;;21.40;34.30;;;;;;5075266;28;19912;-54
2022/03/09 03:45:48;;;;;;;;;;;21.30;34.50;;;;;;5074954;28;19923;-54
2022/03/09 03:48:14;;;;;;;;;;;21.30;35.00;;;;;;5075641;28;19948;-54
2022/03/09 03:50:39;;;;;;;;;;;21.20;35.10;;;;;;5069058;28;19916;-54
2022/03/09 03:53:05;;;;;;;;;;;21.20;35.30;;;;;;5073945;28;20394;-54
2022/03/09 03:55:30;;;;;;;;;;;21.10;35.30;;;;;;5074883;28;20283;-54
2022/03/09 03:57:56;;;;;;;;;;;21.10;35.20;;;;;;5061784;28;19908;-54
2022/03/09 04:00:23;;;;;;;;;;;21.20;35.30;;;;;;5064663;28;19909;-54
2022/03/09 04:02:49;;;;;;;;;;;21.20;35.10;;;;;;5075185;28;19919;-54
2022/03/09 04:05:14;;;;;;;;;;;21.30;35.80;;;;;;5073191;28;20376;-54
2022/03/09 04:07:40;;;;;;;;;;;21.30;35.10;;;;;;5065321;28;19920;-54
2022/03/09 04:10:05;;;;;;;;;;;21.30;35.00;;;;;;5054714;28;19912;-54
2022/03/09 04:12:31;;;;;;;;;;;21.20;34.80;;;;;;5058406;28;19912;-54
2022/03/09 04:14:56;;;;;;;;;;;21.20;34.80;;;;;;5074996;28;19951;-54
2022/03/09 04:17:22;;;;;;;;;;;21.20;35.10;;;;;;5074957;28;19913;-54
2022/03/09 04:19:47;;;;;;;;;;;21.10;35.10;;;;;;5074193;28;19912;-54
2022/03/09 04:22:13;;;;;;;;;;;21.20;34.80;;;;;;5074989;28;19967;-54
2022/03/09 04:24:38;;;;;;;;;;;21.30;34.50;;;;;;5073112;28;19969;-54
2022/03/09 04:27:04;;;;;;;;;;;21.30;34.30;;;;;;5074084;28;20033;-54
2022/03/09 04:29:29;;;;;;;;;;;21.40;34.10;;;;;;5073928;28;19912;-54
2022/03/09 04:31:54;;;;;;;;;;;21.40;33.90;;;;;;5074660;28;19909;-54
2022/03/09 04:34:20;;;;;;;;;;;21.50;33.80;;;;;;5073450;28;19917;-54
2022/03/09 04:36:45;;;;;;;;;;;21.50;34.10;;;;;;5074412;28;19916;-54
2022/03/09 04:39:11;;;;;;;;;;;21.50;33.80;;;;;;5073134;28;20286;-54
2022/03/09 04:41:36;;;;;;;;;;;21.50;33.80;;;;;;5072987;28;19969;-54
2022/03/09 04:44:02;;;;;;;;;;;21.50;33.90;;;;;;5069122;28;19916;-54
2022/03/09 04:46:27;;;;;;;;;;;21.40;33.70;;;;;;5074943;28;20380;-54
2022/03/09 04:48:53;;;;;;;;;;;21.50;33.80;;;;;;5066580;28;20435;-54
2022/03/09 04:51:18;;;;;;;;;;;21.50;34.00;;;;;;5074542;28;19908;-54
2022/03/09 04:53:44;;;;;;;;;;;21.50;33.90;;;;;;5073947;28;20144;-54
2022/03/09 04:56:09;;;;;;;;;;;21.50;34.30;;;;;;5074181;28;20302;-54
2022/03/09 04:58:35;;;;;;;;;;;21.50;34.40;;;;;;5060363;28;20041;-54
2022/03/09 05:01:00;;;;;;;;;;;21.50;34.50;;;;;;5065048;28;19916;-54
2022/03/09 05:03:25;;;;;;;;;;;21.40;34.50;;;;;;5073156;28;19913;-54
2022/03/09 05:05:51;;;;;;;;;;;21.40;34.40;;;;;;5073664;28;20011;-54
2022/03/09 05:08:16;;;;;;;;;;;21.40;34.40;;;;;;5073657;28;19939;-54
2022/03/09 05:10:42;;;;;;;;;;;21.40;34.60;;;;;;5073447;28;19909;-54
2022/03/09 05:13:07;;;;;;;;;;;21.30;34.30;;;;;;5073289;28;20391;-54
2022/03/09 05:15:33;;;;;;;;;;;21.30;34.50;;;;;;5072265;28;20649;-54
2022/03/09 05:17:58;;;;;;;;;;;21.30;34.50;;;;;;5071863;28;19932;-54
2022/03/09 05:20:24;;;;;;;;;;;21.20;34.50;;;;;;5073478;28;19919;-54
2022/03/09 05:22:49;;;;;;;;;;;21.20;34.50;;;;;;5073074;28;19912;-54
2022/03/09 05:25:15;;;;;;;;;;;21.20;34.50;;;;;;5073459;28;19954;-54
2022/03/09 05:27:40;;;;;;;;;;;21.10;34.10;;;;;;5068293;28;19973;-54
2022/03/09 05:30:06;;;;;;;;;;;21.10;34.20;;;;;;5073269;28;19908;-54
2022/03/09 05:32:31;;;;;;;;;;;21.10;34.40;;;;;;5071995;28;19912;-54
2022/03/09 05:34:57;;;;;;;;;;;21.10;34.50;;;;;;5070380;28;19926;-54
2022/03/09 05:37:22;;;;;;;;;;;21.10;34.50;;;;;;5065041;28;19916;-54
2022/03/09 05:39:48;;;;;;;;;;;21.10;34.70;;;;;;5073517;28;20253;-54
2022/03/09 05:42:13;;;;;;;;;;;21.10;34.80;;;;;;5073165;28;19912;-54
2022/03/09 05:44:39;;;;;;;;;;;21.00;34.80;;;;;;5073411;28;20276;-54
2022/03/09 05:47:05;;;;;;;;;;;21.00;34.80;;;;;;5073119;28;20325;-54
2022/03/09 05:49:30;;;;;;;;;;;21.00;35.00;;;;;;5073108;28;19977;-54
2022/03/09 05:51:56;;;;;;;;;;;21.00;35.00;;;;;;5072176;28;19909;-54
2022/03/09 05:54:21;;;;;;;;;;;21.00;35.00;;;;;;5072342;28;19912;-54
2022/03/09 05:56:47;;;;;;;;;;;21.00;34.90;;;;;;5072923;28;19989;-54
2022/03/09 05:59:12;;;;;;;;;;;21.00;34.80;;;;;;5071292;28;19920;-54
2022/03/09 06:01:38;;;;;;;;;;;21.00;34.80;;;;;;5073506;28;19919;-54
2022/03/09 06:04:04;;;;;;;;;;;21.00;34.80;;;;;;5071428;28;19916;-54
2022/03/09 06:06:30;;;;;;;;;;;21.10;34.50;;;;;;5053279;28;19958;-54
2022/03/09 06:08:55;;;;;;;;;;;21.10;34.40;;;;;;5062407;28;20019;-54
2022/03/09 06:11:21;;;;;;;;;;;21.10;34.40;;;;;;5056768;28;20519;-54
2022/03/09 06:13:46;;;;;;;;;;;21.20;34.30;;;;;;5068236;28;19916;-54
2022/03/09 06:16:12;;;;;;;;;;;21.30;33.90;;;;;;5073522;28;19912;-53
2022/03/09 06:18:37;;;;;;;;;;;21.30;33.70;;;;;;5072408;28;19913;-54
2022/03/09 06:21:03;;;;;;;;;;;21.30;33.60;;;;;;5073458;28;20037;-54
2022/03/09 06:23:28;;;;;;;;;;;21.30;33.70;;;;;;5072421;28;19923;-54
2022/03/09 06:25:54;;;;;;;;;;;21.20;33.60;;;;;;5071046;28;20003;-54
2022/03/09 06:28:19;;;;;;;;;;;21.20;33.70;;;;;;5055909;28;19927;-54
2022/03/09 06:30:45;;;;;;;;;;;21.10;33.80;;;;;;5058676;28;19912;-54
2022/03/09 06:33:10;;;;;;;;;;;21.10;34.40;;;;;;5073437;28;20388;-54
2022/03/09 06:35:35;;;;;;;;;;;21.10;34.40;;;;;;5070944;28;20257;-54
2022/03/09 06:38:01;;;;;;;;;;;21.00;34.40;;;;;;5073094;28;20352;-54
2022/03/09 06:40:26;;;;;;;;;;;21.00;34.50;;;;;;5072659;28;19935;-54
2022/03/09 06:42:52;;;;;;;;;;;20.90;34.70;;;;;;5072898;28;19920;-54
2022/03/09 06:45:17;;;;;;;;;;;20.80;34.70;;;;;;5072481;28;19916;-54
2022/03/09 06:47:43;;;;;;;;;;;20.90;34.90;;;;;;5072648;28;19925;-54
2022/03/09 06:50:09;;;;;;;;;;;20.80;34.80;;;;;;5071952;28;19920;-54
2022/03/09 06:52:34;;;;;;;;;;;20.80;34.80;;;;;;5072945;28;19959;-54
2022/03/09 06:55:03;;;;;;;;;;;20.80;34.70;;;;;;5071556;28;20490;-54
2022/03/09 06:57:29;;;;;;;;;;;20.80;34.80;;;;;;5068221;28;19958;-54
2022/03/09 06:59:56;;;;;;;;;;;20.80;34.60;;;;;;5071105;28;19962;-54
2022/03/09 07:02:21;;;;;;;;;;;20.80;34.60;;;;;;5063909;28;20380;-54
2022/03/09 07:04:47;;;;;;;;;;;20.80;34.20;;;;;;5065346;28;19908;-54
2022/03/09 07:07:12;;;;;;;;;;;20.80;34.50;;;;;;5068833;28;19916;-53
2022/03/09 07:09:38;;;;;;;;;;;20.90;34.20;;;;;;5074949;28;20011;-54
2022/03/09 07:12:03;;;;;;;;;;;20.90;34.00;;;;;;5073043;28;19917;-53
2022/03/09 07:14:29;;;;;;;;;;;21.00;34.00;;;;;;5076075;28;20011;-55
2022/03/09 07:16:54;;;;;;;;;;;21.00;33.90;;;;;;5075600;28;19908;-54
2022/03/09 07:19:20;;;;;;;;;;;21.00;33.90;;;;;;5068251;28;19912;-54
2022/03/09 07:21:45;;;;;;;;;;;21.00;34.00;;;;;;5056589;28;19913;-54
2022/03/09 07:24:10;;;;;;;;;;;21.00;34.00;;;;;;5059177;28;19917;-53
2022/03/09 07:26:40;;;;;;;;;;;21.00;34.20;;;;;;5056218;28;19913;-54
2022/03/09 07:29:06;;;;;;;;;;;21.00;34.30;;;;;;5071892;28;20244;-53
2022/03/09 07:31:31;;;;;;;;;;;20.90;34.70;;;;;;5075665;28;19908;-54
2022/03/09 07:33:57;;;;;;;;;;;20.90;34.60;;;;;;5058420;28;20003;-53
2022/03/09 07:36:22;;;;;;;;;;;20.80;34.70;;;;;;5055523;28;19909;-54
2022/03/09 07:38:48;;;;;;;;;;;20.80;34.90;;;;;;5055041;28;19913;-54
2022/03/09 07:41:13;;;;;;;;;;;20.80;35.00;;;;;;5057363;28;19966;-54
2022/03/09 07:43:39;;;;;;;;;;;20.80;35.00;;;;;;5075314;28;19913;-53
2022/03/09 07:46:04;;;;;;;;;;;20.80;35.00;;;;;;5075673;28;19909;-54
2022/03/09 07:48:31;;;;;;;;;;;20.80;35.10;;;;;;5072437;28;19920;-55
2022/03/09 07:50:57;;;;;;;;;;;20.80;35.10;;;;;;5072849;28;20005;-53
2022/03/09 07:53:23;;;;;;;;;;;20.80;35.10;;;;;;5067025;28;20303;-53
2022/03/09 07:55:48;;;;;;;;;;;20.80;35.00;;;;;;5074295;28;19970;-54
2022/03/09 07:58:14;;;;;;;;;;;20.80;34.90;;;;;;5074414;28;20355;-54
2022/03/09 08:00:40;;;;;;;;;;;20.80;34.80;;;;;;5074292;28;20380;-54
2022/03/09 08:03:05;;;;;;;;;;;20.90;34.50;;;;;;5073342;28;19971;-54
2022/03/09 08:05:31;;;;;;;;;;;21.00;34.70;;;;;;5071981;28;20015;-53
2022/03/09 08:07:56;;;;;;;;;;;21.10;34.40;;;;;;5065135;28;19978;-54
2022/03/09 08:10:22;;;;;;;;;;;21.10;34.40;;;;;;5068319;28;20003;-54
2022/03/09 08:12:47;;;;;;;;;;;21.10;34.30;;;;;;5074092;28;19916;-54
2022/03/09 08:15:13;;;;;;;;;;;21.10;34.20;;;;;;5071091;28;19913;-54
2022/03/09 08:17:38;;;;;;;;;;;21.10;34.20;;;;;;5073704;28;19998;-53
2022/03/09 08:20:04;;;;;;;;;;;21.10;34.10;;;;;;5062836;28;20061;-53
2022/03/09 08:22:30;;;;;;;;;;;21.10;34.40;;;;;;5061887;28;19912;-52
2022/03/09 08:24:55;;;;;;;;;;;21.10;35.40;;;;;;5061299;28;19913;-54
2022/03/09 08:27:21;;;;;;;;;;;21.20;35.40;;;;;;5060224;28;19931;-53
2022/03/09 08:29:47;;;;;;;;;;;21.40;34.90;;;;;;5069458;28;20011;-53
2022/03/09 08:32:14;;;;;;;;;;;21.60;34.80;;;;;;5062339;28;21305;-54
2022/03/09 08:34:40;;;;;;;;;;;21.90;34.80;;;;;;5070149;28;20141;-53
2022/03/09 08:37:05;;;;;;;;;;;22.10;34.40;;;;;;5072040;28;19944;-53
2022/03/09 08:39:30;;;;;;;;;;;22.30;34.30;;;;;;5069680;28;19916;-53
2022/03/09 08:41:56;;;;;;;;;;;22.50;34.00;;;;;;5065640;28;19916;-53
2022/03/09 08:44:21;;;;;;;;;;;22.70;34.50;;;;;;5056562;28;20340;-53
2022/03/09 08:46:47;;;;;;;;;;;22.80;33.50;;;;;;5068416;28;20382;-53
2022/03/09 08:49:12;;;;;;;;;;;22.90;33.30;;;;;;5071819;28;20283;-53
2022/03/09 08:51:38;;;;;;;;;;;23.00;33.30;;;;;;5061521;28;19912;-53
2022/03/09 08:54:03;;;;;;;;;;;23.10;33.30;;;;;;5071792;28;20003;-54
2022/03/09 08:56:29;;;;;;;;;;;23.10;33.20;;;;;;5071356;28;19924;-53
2022/03/09 08:58:55;;;;;;;;;;;23.20;33.20;;;;;;5061675;28;19909;-53
2022/03/09 09:01:21;;;;;;;;;;;23.20;33.10;;;;;;5062307;28;19917;-53
2022/03/09 09:03:47;;;;;;;;;;;23.20;33.10;;;;;;5064744;28;19990;-53
2022/03/09 09:06:12;;;;;;;;;;;23.20;33.10;;;;;;5066614;28;19966;-53
2022/03/09 09:08:38;;;;;;;;;;;23.20;33.10;;;;;;5066487;28;19932;-53
2022/03/09 09:11:03;;;;;;;;;;;23.20;33.10;;;;;;5071671;28;19923;-53
2022/03/09 09:13:28;;;;;;;;;;;23.20;33.20;;;;;;5068822;28;19917;-53
2022/03/09 09:15:54;;;;;;;;;;;23.20;33.20;;;;;;5069308;28;20380;-52
2022/03/09 09:18:19;;;;;;;;;;;23.20;33.20;;;;;;5062394;28;20355;-53
2022/03/09 09:20:45;;;;;;;;;;;23.20;33.20;;;;;;5065653;28;19954;-52
2022/03/09 09:23:11;;;;;;;;;;;23.30;33.20;;;;;;5070053;28;20007;-53
2022/03/09 09:25:36;;;;;;;;;;;23.30;33.10;;;;;;5071154;28;19912;-53
2022/03/09 09:28:02;;;;;;;;;;;23.30;33.10;;;;;;5069941;28;20287;-53
2022/03/09 09:30:27;;;;;;;;;;;23.40;33.20;;;;;;5067906;28;19912;-53
2022/03/09 09:32:53;;;;;;;;;;;23.40;33.10;;;;;;5067496;28;20272;-54
2022/03/09 09:35:18;;;;;;;;;;;23.40;33.20;;;;;;5070300;28;19912;-53
2022/03/09 09:37:45;;;;;;;;;;;23.40;33.10;;;;;;5064891;28;20007;-54
2022/03/09 09:40:10;;;;;;;;;;;23.40;33.10;;;;;;5071681;28;19916;-54
2022/03/09 09:42:36;;;;;;;;;;;23.50;33.00;;;;;;5065557;28;19913;-54
2022/03/09 09:45:03;;;;;;;;;;;23.50;33.10;;;;;;5067883;28;20494;-52
2022/03/09 09:47:29;;;;;;;;;;;23.50;33.00;;;;;;5064156;28;19939;-54
2022/03/09 09:49:56;;;;;;;;;;;23.70;33.10;;;;;;5068956;28;20344;-54
2022/03/09 09:52:23;;;;;;;;;;;23.70;32.80;;;;;;5066668;28;20360;-53
2022/03/09 09:54:49;;;;;;;;;;;23.80;32.80;;;;;;5070868;28;20003;-55
2022/03/09 09:57:15;;;;;;;;;;;23.80;32.70;;;;;;5067240;28;19955;-54
2022/03/09 09:59:42;;;;;;;;;;;23.90;32.70;;;;;;5068874;28;20425;-53
2022/03/09 10:02:08;;;;;;;;;;;24.00;32.70;;;;;;5064913;28;19995;-53
2022/03/09 10:04:33;;;;;;;;;;;24.00;32.70;;;;;;5067478;28;20051;-54
2022/03/09 10:06:59;;;;;;;;;;;24.00;32.50;;;;;;5069178;28;19925;-53
2022/03/09 10:09:32;;;;;;;;;;;24.10;32.60;;;;;;5062204;28;20322;-53
2022/03/09 10:11:57;;;;;;;;;;;24.10;32.50;;;;;;5066514;28;20380;-53
2022/03/09 10:14:41;;;;;;;;;;;24.10;32.50;;;;;;5066387;28;19913;-54
2022/03/09 10:17:13;;;;;;;;;;;24.20;32.40;;;;;;5065700;28;19912;-53
2022/03/09 10:19:43;;;;;;;;;;;24.20;32.50;;;;;;5068135;28;20017;-53
2022/03/09 10:22:28;;;;;;;;;;;24.20;32.40;;;;;;5062771;28;20369;-52
2022/03/09 10:24:55;;;;;;;;;;;24.30;32.40;;;;;;5067311;28;19917;-54
2022/03/09 10:27:32;;;;;;;;;;;24.30;32.40;;;;;;5074134;28;19932;-53
2022/03/09 10:29:59;;;;;;;;;;;24.30;32.40;;;;;;5070876;28;19919;-54
2022/03/09 10:32:45;;;;;;;;;;;24.40;32.40;;;;;;5071232;28;20387;-53
2022/03/09 10:35:11;;;;;;;;;;;24.40;32.40;;;;;;5056385;28;20288;-54
2022/03/09 10:37:37;;;;;;;;;;;24.40;32.30;;;;;;5071244;28;20029;-53
2022/03/09 10:40:13;;;;;;;;;;;24.40;32.20;;;;;;5063109;28;20372;-53
2022/03/09 10:42:38;;;;;;;;;;;24.50;32.30;;;;;;5067872;28;19998;-55
2022/03/09 10:45:07;;;;;;;;;;;24.50;32.30;;;;;;5067495;28;20005;-53
2022/03/09 10:47:40;;;;;;;;;;;24.50;32.20;;;;;;5062887;28;20034;-53
2022/03/09 10:50:09;;;;;;;;;;;24.50;32.40;;;;;;5068891;28;19997;-54
2022/03/09 10:52:44;;;;;;;;;;;24.50;32.30;;;;;;5074911;28;19919;-53
2022/03/09 10:55:26;;;;;;;;;;;24.50;32.30;;;;;;5073193;28;19924;-53
2022/03/09 10:57:52;;;;;;;;;;;24.50;32.30;;;;;;5073760;28;19912;-53
2022/03/09 11:00:36;;;;;;;;;;;24.50;32.30;;;;;;5069356;28;20348;-53
2022/03/09 11:03:05;;;;;;;;;;;24.50;32.40;;;;;;5074051;28;19912;-53
2022/03/09 11:05:31;;;;;;;;;;;24.50;32.30;;;;;;5068842;28;20000;-53
2022/03/09 11:07:56;;;;;;;;;;;24.50;32.40;;;;;;5072614;28;19980;-54
2022/03/09 11:10:22;;;;;;;;;;;24.60;32.50;;;;;;5074395;28;20368;-54
2022/03/09 11:12:47;;;;;;;;;;;24.50;32.50;;;;;;5074820;28;20352;-54
2022/03/09 11:15:15;;;;;;;;;;;24.60;32.50;;;;;;5071115;28;20272;-54
2022/03/09 11:17:40;;;;;;;;;;;24.60;32.50;;;;;;5062147;28;20003;-53
2022/03/09 11:20:06;;;;;;;;;;;24.60;32.50;;;;;;5073294;28;19987;-53
2022/03/09 11:22:32;;;;;;;;;;;24.70;32.40;;;;;;5075140;28;19944;-52
2022/03/09 11:24:57;;;;;;;;;;;24.70;32.40;;;;;;5075474;28;20347;-53
2022/03/09 11:27:23;;;;;;;;;;;24.70;32.40;;;;;;5074531;28;20015;-53
2022/03/09 11:29:49;;;;;;;;;;;24.70;32.30;;;;;;5071815;28;19959;-53
2022/03/09 11:32:15;;;;;;;;;;;24.70;32.40;;;;;;5054764;28;19913;-53
2022/03/09 11:34:41;;;;;;;;;;;24.70;32.40;;;;;;5061055;28;19959;-54
2022/03/09 11:37:07;;;;;;;;;;;24.70;32.40;;;;;;5073964;28;19927;-54
2022/03/09 11:39:33;;;;;;;;;;;24.70;32.40;;;;;;5070159;28;19987;-52
2022/03/09 11:42:18;;;;;;;;;;;24.70;32.50;;;;;;5073624;28;20019;-53
2022/03/09 11:44:43;;;;;;;;;;;24.70;32.50;;;;;;5073334;28;20380;-53
2022/03/09 11:47:08;;;;;;;;;;;24.70;32.60;;;;;;5069184;28;20009;-53
2022/03/09 11:49:45;;;;;;;;;;;24.70;32.50;;;;;;5071309;28;20014;-53
2022/03/09 11:52:11;;;;;;;;;;;24.70;32.60;;;;;;5069725;28;19913;-53
2022/03/09 11:54:38;;;;;;;;;;;24.70;32.70;;;;;;5072630;28;19915;-53
2022/03/09 11:57:04;;;;;;;;;;;24.70;32.70;;;;;;5072816;28;19938;-53
2022/03/09 11:59:29;;;;;;;;;;;24.70;32.80;;;;;;5067018;28;19917;-52
2022/03/09 12:01:55;;;;;;;;;;;24.70;32.80;;;;;;5056376;28;20365;-54
2022/03/09 12:04:39;;;;;;;;;;;24.80;32.90;;;;;;5071941;28;20011;-53
2022/03/09 12:07:04;;;;;;;;;;;24.80;32.80;;;;;;5069713;28;20399;-53
2022/03/09 12:09:49;;;;;;;;;;;24.80;32.80;;;;;;5063892;28;19908;-53
2022/03/09 12:12:14;;;;;;;;;;;24.80;32.80;;;;;;5071248;28;19928;-53
2022/03/09 12:14:58;;;;;;;;;;;24.90;33.00;;;;;;5061670;28;19913;-53
2022/03/09 12:17:30;;;;;;;;;;;24.90;33.00;;;;;;5068148;28;19998;-53
2022/03/09 12:20:14;;;;;;;;;;;24.90;32.90;;;;;;5068288;28;19965;-52
2022/03/09 12:23:01;;;;;;;;;;;24.90;33.00;;;;;;5069269;28;19912;-53
2022/03/09 12:25:38;;;;;;;;;;;24.90;33.00;;;;;;5070462;28;19913;-53
2022/03/09 12:28:25;;;;;;;;;;;24.90;33.00;;;;;;5064827;28;19920;-52
2022/03/09 12:30:54;;;;;;;;;;;24.90;33.00;;;;;;5067555;28;20344;-53
2022/03/09 12:33:24;;;;;;;;;;;24.90;33.00;;;;;;5056867;28;19916;-53
2022/03/09 12:35:49;;;;;;;;;;;24.90;33.20;;;;;;5066006;28;19920;-53
2022/03/09 12:38:15;;;;;;;;;;;24.90;33.20;;;;;;5070541;28;19908;-54
2022/03/09 12:40:40;;;;;;;;;;;24.90;33.10;;;;;;5060903;28;20019;-53
2022/03/09 12:43:06;;;;;;;;;;;25.00;33.20;;;;;;5070084;28;19916;-52
2022/03/09 12:45:49;;;;;;;;;;;25.00;33.30;;;;;;5066559;28;19916;-53
2022/03/09 12:48:18;;;;;;;;;;;25.00;33.20;;;;;;5059270;28;19916;-52
2022/03/09 12:50:44;;;;;;;;;;;25.00;33.20;;;;;;5064561;28;19913;-52
2022/03/09 12:53:09;;;;;;;;;;;25.10;33.20;;;;;;5067006;28;19912;-53
2022/03/09 12:55:36;;;;;;;;;;;25.00;33.20;;;;;;5059151;28;20334;-52
2022/03/09 12:58:01;;;;;;;;;;;25.10;33.10;;;;;;5061868;28;19916;-51
2022/03/09 13:00:29;;;;;;;;;;;25.10;33.10;;;;;;5056114;28;19909;-52
2022/03/09 13:02:57;;;;;;;;;;;25.10;33.10;;;;;;5067065;28;19916;-52
2022/03/09 13:05:23;;;;;;;;;;;25.20;33.20;;;;;;5057025;28;19920;-53
2022/03/09 13:08:07;;;;;;;;;;;25.10;33.10;;;;;;5066190;28;19920;-53
2022/03/09 13:10:49;;;;;;;;;;;25.10;33.20;;;;;;5071308;28;19909;-52
2022/03/09 13:13:14;;;;;;;;;;;25.10;33.20;;;;;;5070766;28;19924;-53
2022/03/09 13:15:44;;;;;;;;;;;25.00;33.50;;;;;;5066089;28;19912;-54
2022/03/09 13:18:13;;;;;;;;;;;24.90;33.60;;;;;;5058346;28;19916;-53
2022/03/09 13:20:41;;;;;;;;;;;24.80;33.80;;;;;;5057994;28;19912;-53
2022/03/09 13:23:22;;;;;;;;;;;24.70;33.70;;;;;;5059285;28;20430;-53
2022/03/09 13:25:48;;;;;;;;;;;24.80;34.50;;;;;;5071576;28;19990;-53
2022/03/09 13:28:13;;;;;;;;;;;24.90;33.70;;;;;;5063312;28;19921;-53
2022/03/09 13:30:39;;;;;;;;;;;25.00;33.60;;;;;;5071568;28;19919;-52
2022/03/09 13:33:14;;;;;;;;;;;25.10;33.60;;;;;;5070621;28;19912;-53
2022/03/09 13:35:46;;;;;;;;;;;25.10;34.20;;;;;;5067800;28;19919;-54
2022/03/09 13:38:18;;;;;;;;;;;25.10;33.50;;;;;;5071808;28;19916;-53
2022/03/09 13:40:44;;;;;;;;;;;25.10;33.40;;;;;;5070284;28;19919;-54
2022/03/09 13:43:09;;;;;;;;;;;25.10;33.40;;;;;;5071135;28;19940;-53
2022/03/09 13:45:38;;;;;;;;;;;25.20;33.50;;;;;;5064233;28;19913;-52
2022/03/09 13:48:04;;;;;;;;;;;25.20;33.30;;;;;;5054254;28;19920;-53
2022/03/09 13:50:30;;;;;;;;;;;25.30;33.40;;;;;;5066393;28;20376;-53
2022/03/09 13:53:10;;;;;;;;;;;25.30;33.30;;;;;;5071531;28;20003;-52
2022/03/09 13:55:46;;;;;;;;;;;25.20;33.30;;;;;;5070652;28;20318;-54
2022/03/09 13:58:15;;;;;;;;;;;25.30;33.50;;;;;;5069545;28;19943;-53
2022/03/09 14:00:42;;;;;;;;;;;25.30;33.50;;;;;;5066584;28;19959;-53
2022/03/09 14:03:07;;;;;;;;;;;25.30;33.50;;;;;;5063143;28;19920;-54
2022/03/09 14:05:33;;;;;;;;;;;25.40;33.40;;;;;;5069606;28;20360;-52
2022/03/09 14:07:59;;;;;;;;;;;25.40;33.50;;;;;;5070693;28;20376;-53
2022/03/09 14:10:26;;;;;;;;;;;25.30;33.30;;;;;;5061984;28;19958;-53
2022/03/09 14:12:52;;;;;;;;;;;25.40;33.20;;;;;;5069528;28;19921;-53
2022/03/09 14:15:17;;;;;;;;;;;25.40;33.20;;;;;;5072761;28;19966;-52
2022/03/09 14:17:43;;;;;;;;;;;25.40;33.20;;;;;;5062628;28;19924;-53